sensor_id;sensor_type;location;lat;lon;timestamp;P1;durP1;ratioP1;P2;durP2;ratioP2
84042;SDS011;74129;52.540;13.416;2024-03-08T00:00:11;20.40;;;11.40;;
84042;SDS011;74129;52.540;13.416;2024-03-08T00:02:58;20.70;;;12.40;;
84042;SDS011;74129;52.540;13.416;2024-03-08T00:05:27;22.90;;;12.70;;
84042;SDS011;74129;52.540;13.416;2024-03-08T00:07:54;22.90;;;12.20;;
84042;SDS011;74129;52.540;13.416;2024-03-08T00:10:20;20.30;;;12.00;;
84042;SDS011;74129;52.540;13.416;2024-03-08T00:12:47;23.50;;;12.60;;
84042;SDS011;74129;52.540;13.416;2024-03-08T00:15:14;22.70;;;12.60;;
84042;SDS011;74129;52.540;13.416;2024-03-08T00:17:43;22.20;;;12.50;;
84042;SDS011;74129;52.540;13.416;2024-03-08T00:20:10;27.60;;;14.00;;
84042;SDS011;74129;52.540;13.416;2024-03-08T00:22:37;19.60;;;11.80;;
84042;SDS011;74129;52.540;13.416;2024-03-08T00:25:05;21.50;;;13.10;;
84042;SDS011;74129;52.540;13.416;2024-03-08T00:27:35;23.70;;;13.20;;
84042;SDS011;74129;52.540;13.416;2024-03-08T00:30:02;26.70;;;12.80;;
84042;SDS011;74129;52.540;13.416;2024-03-08T00:32:29;23.10;;;12.60;;
84042;SDS011;74129;52.540;13.416;2024-03-08T00:34:55;24.00;;;12.50;;
84042;SDS011;74129;52.540;13.416;2024-03-08T00:37:21;20.80;;;12.30;;
84042;SDS011;74129;52.540;13.416;2024-03-08T00:39:48;28.00;;;13.40;;
84042;SDS011;74129;52.540;13.416;2024-03-08T00:42:16;21.60;;;12.10;;
84042;SDS011;74129;52.540;13.416;2024-03-08T00:44:42;22.50;;;12.20;;
84042;SDS011;74129;52.540;13.416;2024-03-08T00:47:09;20.70;;;11.00;;
84042;SDS011;74129;52.540;13.416;2024-03-08T00:49:35;20.60;;;11.30;;
84042;SDS011;74129;52.540;13.416;2024-03-08T00:52:05;22.40;;;12.60;;
84042;SDS011;74129;52.540;13.416;2024-03-08T00:54:34;26.80;;;12.50;;
84042;SDS011;74129;52.540;13.416;2024-03-08T00:57:04;25.80;;;12.40;;
84042;SDS011;74129;52.540;13.416;2024-03-08T00:59:30;24.20;;;12.60;;
84042;SDS011;74129;52.540;13.416;2024-03-08T01:02:00;22.10;;;11.80;;
84042;SDS011;74129;52.540;13.416;2024-03-08T01:04:27;20.10;;;11.10;;
84042;SDS011;74129;52.540;13.416;2024-03-08T01:06:58;19.80;;;11.70;;
84042;SDS011;74129;52.540;13.416;2024-03-08T01:09:25;20.50;;;11.70;;
84042;SDS011;74129;52.540;13.416;2024-03-08T01:11:53;20.80;;;12.00;;
84042;SDS011;74129;52.540;13.416;2024-03-08T01:14:23;22.80;;;12.20;;
84042;SDS011;74129;52.540;13.416;2024-03-08T01:16:51;17.20;;;11.10;;
84042;SDS011;74129;52.540;13.416;2024-03-08T01:19:18;21.30;;;11.40;;
84042;SDS011;74129;52.540;13.416;2024-03-08T01:21:44;21.30;;;12.60;;
84042;SDS011;74129;52.540;13.416;2024-03-08T01:24:10;21.30;;;12.30;;
84042;SDS011;74129;52.540;13.416;2024-03-08T01:26:37;22.40;;;12.00;;
84042;SDS011;74129;52.540;13.416;2024-03-08T01:29:03;24.10;;;12.40;;
84042;SDS011;74129;52.540;13.416;2024-03-08T01:31:30;24.50;;;12.60;;
84042;SDS011;74129;52.540;13.416;2024-03-08T01:33:56;23.70;;;12.30;;
84042;SDS011;74129;52.540;13.416;2024-03-08T01:36:24;24.40;;;13.90;;
84042;SDS011;74129;52.540;13.416;2024-03-08T01:38:51;19.20;;;12.00;;
84042;SDS011;74129;52.540;13.416;2024-03-08T01:41:18;19.20;;;11.80;;
84042;SDS011;74129;52.540;13.416;2024-03-08T01:43:46;21.20;;;12.60;;
84042;SDS011;74129;52.540;13.416;2024-03-08T01:46:14;24.10;;;12.80;;
84042;SDS011;74129;52.540;13.416;2024-03-08T01:48:43;21.50;;;12.20;;
84042;SDS011;74129;52.540;13.416;2024-03-08T01:51:11;21.60;;;11.80;;
84042;SDS011;74129;52.540;13.416;2024-03-08T01:53:38;21.20;;;12.30;;
84042;SDS011;74129;52.540;13.416;2024-03-08T01:56:06;20.40;;;12.10;;
84042;SDS011;74129;52.540;13.416;2024-03-08T01:58:33;23.30;;;11.80;;
84042;SDS011;74129;52.540;13.416;2024-03-08T02:01:00;20.90;;;12.10;;
84042;SDS011;74129;52.540;13.416;2024-03-08T02:03:30;18.50;;;11.30;;
84042;SDS011;74129;52.540;13.416;2024-03-08T02:05:57;22.60;;;11.90;;
84042;SDS011;74129;52.540;13.416;2024-03-08T02:08:25;20.70;;;11.20;;
84042;SDS011;74129;52.540;13.416;2024-03-08T02:10:51;20.40;;;11.60;;
84042;SDS011;74129;52.540;13.416;2024-03-08T02:13:18;24.20;;;12.70;;
84042;SDS011;74129;52.540;13.416;2024-03-08T02:15:54;24.10;;;13.10;;
84042;SDS011;74129;52.540;13.416;2024-03-08T02:18:22;21.70;;;11.90;;
84042;SDS011;74129;52.540;13.416;2024-03-08T02:20:50;22.40;;;12.50;;
84042;SDS011;74129;52.540;13.416;2024-03-08T02:23:21;27.20;;;12.50;;
84042;SDS011;74129;52.540;13.416;2024-03-08T02:25:48;24.70;;;12.80;;
84042;SDS011;74129;52.540;13.416;2024-03-08T02:28:15;26.60;;;13.40;;
84042;SDS011;74129;52.540;13.416;2024-03-08T02:30:41;23.80;;;13.30;;
84042;SDS011;74129;52.540;13.416;2024-03-08T02:33:08;24.20;;;11.70;;
84042;SDS011;74129;52.540;13.416;2024-03-08T02:35:37;22.00;;;12.20;;
84042;SDS011;74129;52.540;13.416;2024-03-08T02:38:04;24.90;;;13.00;;
84042;SDS011;74129;52.540;13.416;2024-03-08T02:40:31;24.90;;;12.70;;
84042;SDS011;74129;52.540;13.416;2024-03-08T02:42:58;20.90;;;12.60;;
84042;SDS011;74129;52.540;13.416;2024-03-08T02:45:24;23.00;;;13.20;;
84042;SDS011;74129;52.540;13.416;2024-03-08T02:47:51;22.70;;;12.30;;
84042;SDS011;74129;52.540;13.416;2024-03-08T02:50:17;21.90;;;12.00;;
84042;SDS011;74129;52.540;13.416;2024-03-08T02:52:44;28.00;;;13.30;;
84042;SDS011;74129;52.540;13.416;2024-03-08T02:55:12;23.40;;;13.30;;
84042;SDS011;74129;52.540;13.416;2024-03-08T02:57:42;27.70;;;15.10;;
84042;SDS011;74129;52.540;13.416;2024-03-08T03:00:10;24.20;;;12.80;;
84042;SDS011;74129;52.540;13.416;2024-03-08T03:02:37;27.00;;;14.10;;
84042;SDS011;74129;52.540;13.416;2024-03-08T03:05:03;25.10;;;12.90;;
84042;SDS011;74129;52.540;13.416;2024-03-08T03:07:32;21.50;;;12.80;;
84042;SDS011;74129;52.540;13.416;2024-03-08T03:09:59;26.10;;;12.80;;
84042;SDS011;74129;52.540;13.416;2024-03-08T03:12:30;26.50;;;13.00;;
84042;SDS011;74129;52.540;13.416;2024-03-08T03:14:57;25.30;;;14.80;;
84042;SDS011;74129;52.540;13.416;2024-03-08T03:17:24;23.80;;;13.20;;
84042;SDS011;74129;52.540;13.416;2024-03-08T03:19:51;25.50;;;14.10;;
84042;SDS011;74129;52.540;13.416;2024-03-08T03:22:20;27.50;;;13.70;;
84042;SDS011;74129;52.540;13.416;2024-03-08T03:24:47;26.90;;;13.00;;
84042;SDS011;74129;52.540;13.416;2024-03-08T03:27:13;26.00;;;13.60;;
84042;SDS011;74129;52.540;13.416;2024-03-08T03:29:41;26.10;;;13.20;;
84042;SDS011;74129;52.540;13.416;2024-03-08T03:32:11;23.30;;;11.80;;
84042;SDS011;74129;52.540;13.416;2024-03-08T03:34:38;23.60;;;14.50;;
84042;SDS011;74129;52.540;13.416;2024-03-08T03:37:06;25.00;;;13.50;;
84042;SDS011;74129;52.540;13.416;2024-03-08T03:39:34;27.00;;;13.50;;
84042;SDS011;74129;52.540;13.416;2024-03-08T03:42:06;25.60;;;13.60;;
84042;SDS011;74129;52.540;13.416;2024-03-08T03:44:33;22.40;;;13.50;;
84042;SDS011;74129;52.540;13.416;2024-03-08T03:46:59;25.90;;;14.20;;
84042;SDS011;74129;52.540;13.416;2024-03-08T03:49:25;23.40;;;13.60;;
84042;SDS011;74129;52.540;13.416;2024-03-08T03:51:52;25.10;;;13.40;;
84042;SDS011;74129;52.540;13.416;2024-03-08T03:54:18;30.60;;;12.80;;
84042;SDS011;74129;52.540;13.416;2024-03-08T03:56:45;25.70;;;12.90;;
84042;SDS011;74129;52.540;13.416;2024-03-08T03:59:12;28.20;;;14.80;;
84042;SDS011;74129;52.540;13.416;2024-03-08T04:01:41;26.50;;;14.30;;
84042;SDS011;74129;52.540;13.416;2024-03-08T04:04:09;29.50;;;14.30;;
84042;SDS011;74129;52.540;13.416;2024-03-08T04:06:35;28.00;;;14.00;;
84042;SDS011;74129;52.540;13.416;2024-03-08T04:09:01;28.20;;;13.00;;
84042;SDS011;74129;52.540;13.416;2024-03-08T04:11:28;26.80;;;14.20;;
84042;SDS011;74129;52.540;13.416;2024-03-08T04:13:54;26.30;;;13.50;;
84042;SDS011;74129;52.540;13.416;2024-03-08T04:16:20;25.60;;;14.20;;
84042;SDS011;74129;52.540;13.416;2024-03-08T04:18:47;28.50;;;14.50;;
84042;SDS011;74129;52.540;13.416;2024-03-08T04:21:13;25.50;;;13.80;;
84042;SDS011;74129;52.540;13.416;2024-03-08T04:23:40;22.50;;;13.30;;
84042;SDS011;74129;52.540;13.416;2024-03-08T04:26:06;25.50;;;14.00;;
84042;SDS011;74129;52.540;13.416;2024-03-08T04:28:33;26.30;;;13.80;;
84042;SDS011;74129;52.540;13.416;2024-03-08T04:30:59;30.20;;;14.90;;
84042;SDS011;74129;52.540;13.416;2024-03-08T04:33:26;26.80;;;14.30;;
84042;SDS011;74129;52.540;13.416;2024-03-08T04:35:53;25.30;;;14.60;;
84042;SDS011;74129;52.540;13.416;2024-03-08T04:38:19;27.70;;;14.30;;
84042;SDS011;74129;52.540;13.416;2024-03-08T04:40:45;26.10;;;12.90;;
84042;SDS011;74129;52.540;13.416;2024-03-08T04:43:12;25.90;;;13.70;;
84042;SDS011;74129;52.540;13.416;2024-03-08T04:45:38;24.30;;;13.50;;
84042;SDS011;74129;52.540;13.416;2024-03-08T04:48:05;22.10;;;13.20;;
84042;SDS011;74129;52.540;13.416;2024-03-08T04:50:32;27.60;;;14.20;;
84042;SDS011;74129;52.540;13.416;2024-03-08T04:52:58;25.50;;;13.40;;
84042;SDS011;74129;52.540;13.416;2024-03-08T04:55:24;27.10;;;13.20;;
84042;SDS011;74129;52.540;13.416;2024-03-08T04:57:51;27.40;;;14.50;;
84042;SDS011;74129;52.540;13.416;2024-03-08T05:00:17;22.80;;;13.10;;
84042;SDS011;74129;52.540;13.416;2024-03-08T05:02:44;25.80;;;13.80;;
84042;SDS011;74129;52.540;13.416;2024-03-08T05:05:10;25.00;;;14.20;;
84042;SDS011;74129;52.540;13.416;2024-03-08T05:07:39;27.30;;;14.40;;
84042;SDS011;74129;52.540;13.416;2024-03-08T05:10:06;29.60;;;14.20;;
84042;SDS011;74129;52.540;13.416;2024-03-08T05:12:33;25.40;;;13.60;;
84042;SDS011;74129;52.540;13.416;2024-03-08T05:14:59;25.70;;;14.30;;
84042;SDS011;74129;52.540;13.416;2024-03-08T05:17:26;25.50;;;14.10;;
84042;SDS011;74129;52.540;13.416;2024-03-08T05:19:52;25.60;;;13.30;;
84042;SDS011;74129;52.540;13.416;2024-03-08T05:22:19;27.50;;;14.20;;
84042;SDS011;74129;52.540;13.416;2024-03-08T05:24:46;24.80;;;13.90;;
84042;SDS011;74129;52.540;13.416;2024-03-08T05:27:12;25.80;;;13.90;;
84042;SDS011;74129;52.540;13.416;2024-03-08T05:29:39;25.80;;;14.40;;
84042;SDS011;74129;52.540;13.416;2024-03-08T05:32:05;26.60;;;13.70;;
84042;SDS011;74129;52.540;13.416;2024-03-08T05:34:33;26.90;;;15.20;;
84042;SDS011;74129;52.540;13.416;2024-03-08T05:36:59;26.10;;;14.30;;
84042;SDS011;74129;52.540;13.416;2024-03-08T05:39:26;25.10;;;13.80;;
84042;SDS011;74129;52.540;13.416;2024-03-08T05:41:52;24.30;;;14.00;;
84042;SDS011;74129;52.540;13.416;2024-03-08T05:44:19;27.90;;;14.50;;
84042;SDS011;74129;52.540;13.416;2024-03-08T05:46:45;23.70;;;13.40;;
84042;SDS011;74129;52.540;13.416;2024-03-08T05:49:12;26.10;;;13.40;;
84042;SDS011;74129;52.540;13.416;2024-03-08T05:51:40;27.00;;;14.20;;
84042;SDS011;74129;52.540;13.416;2024-03-08T05:54:08;33.80;;;15.10;;
84042;SDS011;74129;52.540;13.416;2024-03-08T05:56:36;36.10;;;16.70;;
84042;SDS011;74129;52.540;13.416;2024-03-08T05:59:04;57.80;;;26.70;;
84042;SDS011;74129;52.540;13.416;2024-03-08T06:01:30;55.10;;;27.00;;
84042;SDS011;74129;52.540;13.416;2024-03-08T06:03:57;54.20;;;26.40;;
84042;SDS011;74129;52.540;13.416;2024-03-08T06:06:24;39.20;;;19.20;;
84042;SDS011;74129;52.540;13.416;2024-03-08T06:08:50;42.00;;;21.70;;
84042;SDS011;74129;52.540;13.416;2024-03-08T06:11:17;33.10;;;18.40;;
84042;SDS011;74129;52.540;13.416;2024-03-08T06:13:46;31.80;;;17.00;;
84042;SDS011;74129;52.540;13.416;2024-03-08T06:16:13;29.30;;;17.10;;
84042;SDS011;74129;52.540;13.416;2024-03-08T06:18:40;34.60;;;17.40;;
84042;SDS011;74129;52.540;13.416;2024-03-08T06:21:07;32.40;;;16.30;;
84042;SDS011;74129;52.540;13.416;2024-03-08T06:23:42;29.60;;;15.40;;
84042;SDS011;74129;52.540;13.416;2024-03-08T06:26:08;26.90;;;14.80;;
84042;SDS011;74129;52.540;13.416;2024-03-08T06:28:34;29.20;;;14.30;;
84042;SDS011;74129;52.540;13.416;2024-03-08T06:31:01;28.40;;;15.50;;
84042;SDS011;74129;52.540;13.416;2024-03-08T06:33:28;31.50;;;16.10;;
84042;SDS011;74129;52.540;13.416;2024-03-08T06:35:55;31.70;;;16.20;;
84042;SDS011;74129;52.540;13.416;2024-03-08T06:38:23;34.70;;;16.60;;
84042;SDS011;74129;52.540;13.416;2024-03-08T06:40:50;34.70;;;16.70;;
84042;SDS011;74129;52.540;13.416;2024-03-08T06:43:17;36.10;;;17.30;;
84042;SDS011;74129;52.540;13.416;2024-03-08T06:45:44;35.80;;;17.20;;
84042;SDS011;74129;52.540;13.416;2024-03-08T06:48:15;36.00;;;17.80;;
84042;SDS011;74129;52.540;13.416;2024-03-08T06:50:43;34.40;;;16.50;;
84042;SDS011;74129;52.540;13.416;2024-03-08T06:53:13;35.70;;;16.90;;
84042;SDS011;74129;52.540;13.416;2024-03-08T06:55:40;34.90;;;16.90;;
84042;SDS011;74129;52.540;13.416;2024-03-08T06:58:06;32.60;;;15.30;;
84042;SDS011;74129;52.540;13.416;2024-03-08T07:00:33;34.40;;;16.30;;
84042;SDS011;74129;52.540;13.416;2024-03-08T07:02:59;33.80;;;17.80;;
84042;SDS011;74129;52.540;13.416;2024-03-08T07:05:29;31.00;;;16.60;;
84042;SDS011;74129;52.540;13.416;2024-03-08T07:07:56;38.30;;;18.10;;
84042;SDS011;74129;52.540;13.416;2024-03-08T07:10:22;38.40;;;17.70;;
84042;SDS011;74129;52.540;13.416;2024-03-08T07:12:52;36.30;;;17.40;;
84042;SDS011;74129;52.540;13.416;2024-03-08T07:15:21;36.20;;;18.10;;
84042;SDS011;74129;52.540;13.416;2024-03-08T07:17:49;30.50;;;16.00;;
84042;SDS011;74129;52.540;13.416;2024-03-08T07:20:18;33.20;;;16.30;;
84042;SDS011;74129;52.540;13.416;2024-03-08T07:22:45;32.80;;;17.40;;
84042;SDS011;74129;52.540;13.416;2024-03-08T07:25:17;28.10;;;15.50;;
84042;SDS011;74129;52.540;13.416;2024-03-08T07:27:43;28.60;;;15.50;;
84042;SDS011;74129;52.540;13.416;2024-03-08T07:30:10;26.20;;;14.90;;
84042;SDS011;74129;52.540;13.416;2024-03-08T07:32:36;32.20;;;16.80;;
84042;SDS011;74129;52.540;13.416;2024-03-08T07:35:03;27.70;;;15.80;;
84042;SDS011;74129;52.540;13.416;2024-03-08T07:37:31;25.30;;;15.60;;
84042;SDS011;74129;52.540;13.416;2024-03-08T07:39:57;26.30;;;15.10;;
84042;SDS011;74129;52.540;13.416;2024-03-08T07:42:24;29.70;;;16.10;;
84042;SDS011;74129;52.540;13.416;2024-03-08T07:44:50;38.50;;;19.60;;
84042;SDS011;74129;52.540;13.416;2024-03-08T07:47:17;39.90;;;20.40;;
84042;SDS011;74129;52.540;13.416;2024-03-08T07:49:44;38.00;;;20.20;;
84042;SDS011;74129;52.540;13.416;2024-03-08T07:52:10;40.10;;;21.90;;
84042;SDS011;74129;52.540;13.416;2024-03-08T07:54:41;41.40;;;22.50;;
84042;SDS011;74129;52.540;13.416;2024-03-08T07:57:08;36.50;;;20.20;;
84042;SDS011;74129;52.540;13.416;2024-03-08T07:59:34;34.70;;;18.70;;
84042;SDS011;74129;52.540;13.416;2024-03-08T08:02:00;33.30;;;19.20;;
84042;SDS011;74129;52.540;13.416;2024-03-08T08:04:27;37.30;;;19.80;;
84042;SDS011;74129;52.540;13.416;2024-03-08T08:06:53;43.20;;;24.50;;
84042;SDS011;74129;52.540;13.416;2024-03-08T08:09:21;50.60;;;26.90;;
84042;SDS011;74129;52.540;13.416;2024-03-08T08:12:00;46.20;;;25.50;;
84042;SDS011;74129;52.540;13.416;2024-03-08T08:14:29;45.70;;;25.10;;
84042;SDS011;74129;52.540;13.416;2024-03-08T08:16:57;50.10;;;26.10;;
84042;SDS011;74129;52.540;13.416;2024-03-08T08:19:24;45.00;;;24.60;;
84042;SDS011;74129;52.540;13.416;2024-03-08T08:21:52;43.80;;;23.80;;
84042;SDS011;74129;52.540;13.416;2024-03-08T08:24:19;38.30;;;21.00;;
84042;SDS011;74129;52.540;13.416;2024-03-08T08:26:48;32.00;;;19.10;;
84042;SDS011;74129;52.540;13.416;2024-03-08T08:29:14;32.80;;;18.30;;
84042;SDS011;74129;52.540;13.416;2024-03-08T08:31:40;28.20;;;15.90;;
84042;SDS011;74129;52.540;13.416;2024-03-08T08:34:08;30.10;;;16.40;;
84042;SDS011;74129;52.540;13.416;2024-03-08T08:36:35;32.70;;;17.60;;
84042;SDS011;74129;52.540;13.416;2024-03-08T08:39:03;25.20;;;14.20;;
84042;SDS011;74129;52.540;13.416;2024-03-08T08:41:29;25.80;;;15.00;;
84042;SDS011;74129;52.540;13.416;2024-03-08T08:43:56;26.10;;;14.80;;
84042;SDS011;74129;52.540;13.416;2024-03-08T08:46:22;22.90;;;14.00;;
84042;SDS011;74129;52.540;13.416;2024-03-08T08:48:48;28.40;;;15.30;;
84042;SDS011;74129;52.540;13.416;2024-03-08T08:51:15;27.90;;;15.60;;
84042;SDS011;74129;52.540;13.416;2024-03-08T08:53:41;28.60;;;16.10;;
84042;SDS011;74129;52.540;13.416;2024-03-08T08:56:13;27.30;;;15.50;;
84042;SDS011;74129;52.540;13.416;2024-03-08T08:58:40;30.00;;;17.50;;
84042;SDS011;74129;52.540;13.416;2024-03-08T09:01:09;31.50;;;16.80;;
84042;SDS011;74129;52.540;13.416;2024-03-08T09:03:37;33.10;;;18.40;;
84042;SDS011;74129;52.540;13.416;2024-03-08T09:06:07;31.70;;;17.50;;
84042;SDS011;74129;52.540;13.416;2024-03-08T09:11:03;27.30;;;16.00;;
84042;SDS011;74129;52.540;13.416;2024-03-08T09:13:30;31.30;;;16.70;;
84042;SDS011;74129;52.540;13.416;2024-03-08T09:15:56;25.30;;;15.40;;
84042;SDS011;74129;52.540;13.416;2024-03-08T09:18:23;27.90;;;14.80;;
84042;SDS011;74129;52.540;13.416;2024-03-08T09:20:50;26.40;;;15.00;;
84042;SDS011;74129;52.540;13.416;2024-03-08T09:23:20;33.00;;;18.60;;
84042;SDS011;74129;52.540;13.416;2024-03-08T09:25:46;26.40;;;15.70;;
84042;SDS011;74129;52.540;13.416;2024-03-08T09:28:13;40.60;;;20.80;;
84042;SDS011;74129;52.540;13.416;2024-03-08T09:30:40;34.00;;;19.50;;
84042;SDS011;74129;52.540;13.416;2024-03-08T09:33:06;36.30;;;20.50;;
84042;SDS011;74129;52.540;13.416;2024-03-08T09:35:33;43.40;;;22.00;;
84042;SDS011;74129;52.540;13.416;2024-03-08T09:37:59;35.30;;;20.10;;
84042;SDS011;74129;52.540;13.416;2024-03-08T09:40:26;29.20;;;16.80;;
84042;SDS011;74129;52.540;13.416;2024-03-08T09:42:53;33.30;;;18.00;;
84042;SDS011;74129;52.540;13.416;2024-03-08T09:45:21;34.60;;;18.90;;
84042;SDS011;74129;52.540;13.416;2024-03-08T09:47:48;41.20;;;23.70;;
84042;SDS011;74129;52.540;13.416;2024-03-08T09:50:15;36.90;;;22.00;;
84042;SDS011;74129;52.540;13.416;2024-03-08T09:52:47;41.30;;;23.80;;
84042;SDS011;74129;52.540;13.416;2024-03-08T09:55:15;36.70;;;21.70;;
84042;SDS011;74129;52.540;13.416;2024-03-08T09:57:43;61.30;;;34.70;;
84042;SDS011;74129;52.540;13.416;2024-03-08T10:00:30;51.50;;;28.30;;
84042;SDS011;74129;52.540;13.416;2024-03-08T10:03:00;35.10;;;21.00;;
84042;SDS011;74129;52.540;13.416;2024-03-08T10:05:27;30.30;;;18.40;;
84042;SDS011;74129;52.540;13.416;2024-03-08T10:07:54;29.20;;;16.20;;
84042;SDS011;74129;52.540;13.416;2024-03-08T10:10:20;25.40;;;15.90;;
84042;SDS011;74129;52.540;13.416;2024-03-08T10:12:48;25.90;;;14.60;;
84042;SDS011;74129;52.540;13.416;2024-03-08T10:15:15;22.20;;;13.00;;
84042;SDS011;74129;52.540;13.416;2024-03-08T10:17:46;27.10;;;14.20;;
84042;SDS011;74129;52.540;13.416;2024-03-08T10:20:13;21.90;;;13.70;;
84042;SDS011;74129;52.540;13.416;2024-03-08T10:22:41;25.70;;;14.70;;
84042;SDS011;74129;52.540;13.416;2024-03-08T10:25:11;23.40;;;13.70;;
84042;SDS011;74129;52.540;13.416;2024-03-08T10:27:38;23.50;;;13.90;;
84042;SDS011;74129;52.540;13.416;2024-03-08T10:30:06;22.00;;;13.60;;
84042;SDS011;74129;52.540;13.416;2024-03-08T10:32:38;21.80;;;13.00;;
84042;SDS011;74129;52.540;13.416;2024-03-08T10:35:05;21.50;;;13.30;;
84042;SDS011;74129;52.540;13.416;2024-03-08T10:37:36;22.00;;;13.60;;
84042;SDS011;74129;52.540;13.416;2024-03-08T10:40:18;23.10;;;14.50;;
84042;SDS011;74129;52.540;13.416;2024-03-08T10:45:35;20.20;;;12.60;;
84042;SDS011;74129;52.540;13.416;2024-03-08T10:48:13;21.90;;;13.20;;
84042;SDS011;74129;52.540;13.416;2024-03-08T10:50:48;21.90;;;12.50;;
84042;SDS011;74129;52.540;13.416;2024-03-08T10:53:17;21.90;;;12.40;;
84042;SDS011;74129;52.540;13.416;2024-03-08T10:55:44;21.10;;;13.50;;
84042;SDS011;74129;52.540;13.416;2024-03-08T10:58:13;21.10;;;12.20;;
84042;SDS011;74129;52.540;13.416;2024-03-08T11:00:40;22.60;;;12.90;;
84042;SDS011;74129;52.540;13.416;2024-03-08T11:03:07;20.10;;;11.80;;
84042;SDS011;74129;52.540;13.416;2024-03-08T11:05:37;20.60;;;12.30;;
84042;SDS011;74129;52.540;13.416;2024-03-08T11:08:16;17.30;;;10.40;;
84042;SDS011;74129;52.540;13.416;2024-03-08T11:10:49;18.10;;;10.50;;
84042;SDS011;74129;52.540;13.416;2024-03-08T11:13:39;19.70;;;11.90;;
84042;SDS011;74129;52.540;13.416;2024-03-08T11:16:07;21.30;;;11.90;;
84042;SDS011;74129;52.540;13.416;2024-03-08T11:18:35;17.50;;;11.00;;
84042;SDS011;74129;52.540;13.416;2024-03-08T11:21:08;20.60;;;11.20;;
84042;SDS011;74129;52.540;13.416;2024-03-08T11:23:38;17.20;;;10.90;;
84042;SDS011;74129;52.540;13.416;2024-03-08T11:26:17;18.20;;;11.50;;
84042;SDS011;74129;52.540;13.416;2024-03-08T11:28:45;19.50;;;11.10;;
84042;SDS011;74129;52.540;13.416;2024-03-08T11:33:40;21.10;;;11.90;;
84042;SDS011;74129;52.540;13.416;2024-03-08T11:36:10;20.30;;;11.30;;
84042;SDS011;74129;52.540;13.416;2024-03-08T11:38:40;19.00;;;13.80;;
84042;SDS011;74129;52.540;13.416;2024-03-08T11:41:10;32.90;;;17.60;;
84042;SDS011;74129;52.540;13.416;2024-03-08T11:43:40;29.90;;;17.00;;
84042;SDS011;74129;52.540;13.416;2024-03-08T11:46:11;24.80;;;14.40;;
84042;SDS011;74129;52.540;13.416;2024-03-08T11:48:41;20.00;;;12.20;;
84042;SDS011;74129;52.540;13.416;2024-03-08T11:51:11;20.00;;;12.40;;
84042;SDS011;74129;52.540;13.416;2024-03-08T11:53:38;19.40;;;12.20;;
84042;SDS011;74129;52.540;13.416;2024-03-08T11:56:08;18.10;;;11.00;;
84042;SDS011;74129;52.540;13.416;2024-03-08T11:58:37;17.60;;;11.60;;
84042;SDS011;74129;52.540;13.416;2024-03-08T12:01:07;18.70;;;11.90;;
84042;SDS011;74129;52.540;13.416;2024-03-08T12:03:43;17.10;;;10.90;;
84042;SDS011;74129;52.540;13.416;2024-03-08T12:06:09;21.50;;;11.10;;
84042;SDS011;74129;52.540;13.416;2024-03-08T12:08:37;20.20;;;11.70;;
84042;SDS011;74129;52.540;13.416;2024-03-08T12:11:03;16.90;;;11.00;;
84042;SDS011;74129;52.540;13.416;2024-03-08T12:13:31;21.60;;;11.80;;
84042;SDS011;74129;52.540;13.416;2024-03-08T12:16:00;20.60;;;11.90;;
84042;SDS011;74129;52.540;13.416;2024-03-08T12:18:34;20.40;;;11.70;;
84042;SDS011;74129;52.540;13.416;2024-03-08T12:23:37;19.10;;;11.80;;
84042;SDS011;74129;52.540;13.416;2024-03-08T12:26:15;20.50;;;11.10;;
84042;SDS011;74129;52.540;13.416;2024-03-08T12:28:50;18.00;;;11.00;;
84042;SDS011;74129;52.540;13.416;2024-03-08T12:31:16;18.60;;;11.10;;
84042;SDS011;74129;52.540;13.416;2024-03-08T12:33:52;20.30;;;11.40;;
84042;SDS011;74129;52.540;13.416;2024-03-08T12:36:20;18.10;;;10.40;;
84042;SDS011;74129;52.540;13.416;2024-03-08T12:38:47;17.50;;;11.50;;
84042;SDS011;74129;52.540;13.416;2024-03-08T12:41:16;21.40;;;12.40;;
84042;SDS011;74129;52.540;13.416;2024-03-08T12:43:45;18.50;;;11.60;;
84042;SDS011;74129;52.540;13.416;2024-03-08T12:46:16;21.40;;;12.20;;
84042;SDS011;74129;52.540;13.416;2024-03-08T12:48:43;20.60;;;12.40;;
84042;SDS011;74129;52.540;13.416;2024-03-08T12:51:13;16.90;;;11.10;;
84042;SDS011;74129;52.540;13.416;2024-03-08T12:53:44;18.30;;;12.20;;
84042;SDS011;74129;52.540;13.416;2024-03-08T12:56:12;19.80;;;11.90;;
84042;SDS011;74129;52.540;13.416;2024-03-08T12:58:39;18.90;;;11.20;;
84042;SDS011;74129;52.540;13.416;2024-03-08T13:01:06;21.30;;;12.60;;
84042;SDS011;74129;52.540;13.416;2024-03-08T13:03:34;19.00;;;12.00;;
84042;SDS011;74129;52.540;13.416;2024-03-08T13:06:04;21.80;;;11.30;;
84042;SDS011;74129;52.540;13.416;2024-03-08T13:08:35;19.00;;;11.50;;
84042;SDS011;74129;52.540;13.416;2024-03-08T13:11:04;19.70;;;11.00;;
84042;SDS011;74129;52.540;13.416;2024-03-08T13:13:33;18.10;;;10.60;;
84042;SDS011;74129;52.540;13.416;2024-03-08T13:16:02;18.40;;;11.50;;
84042;SDS011;74129;52.540;13.416;2024-03-08T13:18:29;16.20;;;10.50;;
84042;SDS011;74129;52.540;13.416;2024-03-08T13:20:56;18.60;;;11.70;;
84042;SDS011;74129;52.540;13.416;2024-03-08T13:23:23;17.30;;;11.00;;
84042;SDS011;74129;52.540;13.416;2024-03-08T13:25:50;18.90;;;11.40;;
84042;SDS011;74129;52.540;13.416;2024-03-08T13:28:16;15.90;;;10.10;;
84042;SDS011;74129;52.540;13.416;2024-03-08T13:30:49;22.50;;;12.90;;
84042;SDS011;74129;52.540;13.416;2024-03-08T13:33:15;16.40;;;10.60;;
84042;SDS011;74129;52.540;13.416;2024-03-08T13:35:41;19.40;;;11.00;;
84042;SDS011;74129;52.540;13.416;2024-03-08T13:38:08;17.50;;;10.40;;
84042;SDS011;74129;52.540;13.416;2024-03-08T13:40:38;19.70;;;10.70;;
84042;SDS011;74129;52.540;13.416;2024-03-08T13:43:06;18.10;;;11.10;;
84042;SDS011;74129;52.540;13.416;2024-03-08T13:45:34;15.90;;;10.80;;
84042;SDS011;74129;52.540;13.416;2024-03-08T13:48:04;17.40;;;10.70;;
84042;SDS011;74129;52.540;13.416;2024-03-08T13:50:31;16.60;;;11.10;;
84042;SDS011;74129;52.540;13.416;2024-03-08T13:52:57;18.80;;;11.40;;
84042;SDS011;74129;52.540;13.416;2024-03-08T13:55:24;16.80;;;11.80;;
84042;SDS011;74129;52.540;13.416;2024-03-08T13:57:53;20.10;;;12.30;;
84042;SDS011;74129;52.540;13.416;2024-03-08T14:00:19;19.50;;;12.00;;
84042;SDS011;74129;52.540;13.416;2024-03-08T14:02:49;18.80;;;11.60;;
84042;SDS011;74129;52.540;13.416;2024-03-08T14:05:15;19.00;;;12.40;;
84042;SDS011;74129;52.540;13.416;2024-03-08T14:07:42;19.80;;;11.80;;
84042;SDS011;74129;52.540;13.416;2024-03-08T14:10:08;19.90;;;11.70;;
84042;SDS011;74129;52.540;13.416;2024-03-08T14:12:35;27.40;;;12.10;;
84042;SDS011;74129;52.540;13.416;2024-03-08T14:15:02;19.30;;;12.50;;
84042;SDS011;74129;52.540;13.416;2024-03-08T14:17:33;18.90;;;12.00;;
84042;SDS011;74129;52.540;13.416;2024-03-08T14:19:59;18.00;;;11.30;;
84042;SDS011;74129;52.540;13.416;2024-03-08T14:22:26;20.00;;;12.70;;